createdAt,value
2023-04-02T00:01:50.826Z,99403.34
2023-04-02T00:07:30.844Z,99415.09
2023-04-02T00:12:32.511Z,99430.34
2023-04-02T00:17:34.126Z,99448.63
2023-04-02T00:22:44.052Z,99452.66
2023-04-02T00:27:45.930Z,99457.88
2023-04-02T00:32:47.965Z,99468.31
2023-04-02T00:37:49.840Z,99483.16
2023-04-02T00:42:53.756Z,99484.63
2023-04-02T00:47:56.348Z,99494.81
2023-04-02T00:52:59.145Z,99492.16
2023-04-02T00:58:01.528Z,99508.16
2023-04-02T01:03:13.147Z,99533.47
2023-04-02T01:08:45.526Z,99540.56
2023-04-02T01:14:18.096Z,99546.38
2023-04-02T01:19:19.834Z,99553.88
2023-04-02T01:24:21.964Z,99564.47
2023-04-02T01:29:26.444Z,99571.25
2023-04-02T01:34:29.288Z,99583.94
2023-04-02T01:39:46.588Z,99600.31
2023-04-02T01:44:53.731Z,99617.78
2023-04-02T01:50:24.280Z,99618.03
2023-04-02T01:55:40.234Z,99626.88
2023-04-02T02:00:46.773Z,99642.09
2023-04-02T02:05:48.788Z,99648.53
2023-04-02T02:10:50.924Z,99672.47
2023-04-02T02:15:52.705Z,99670.13
2023-04-02T02:20:55.261Z,99681.25
2023-04-02T02:25:57.009Z,99687.72
2023-04-02T02:31:22.584Z,99691.38
2023-04-02T02:36:30.735Z,99701.50
2023-04-02T02:41:36.359Z,99718.34
2023-04-02T02:46:40.856Z,99728.31
2023-04-02T02:51:49.164Z,99734.91
2023-04-02T02:57:02.198Z,99747.06
2023-04-02T03:02:07.171Z,99743.78
2023-04-02T03:07:09.594Z,99764.06
2023-04-02T03:12:28.746Z,99774.06
2023-04-02T03:17:37.375Z,99785.81
2023-04-02T03:22:47.314Z,99788.38
2023-04-02T03:27:52.038Z,99810.41
2023-04-02T03:32:59.308Z,99823.44
2023-04-02T03:38:05.437Z,99832.09
2023-04-02T03:43:25.627Z,99845.47
2023-04-02T03:48:49.248Z,99855.16
2023-04-02T03:53:52.088Z,99874.84
2023-04-02T03:59:15.426Z,99877.56
2023-04-02T04:04:19.064Z,99892.63
2023-04-02T04:09:32.948Z,99901.00
2023-04-02T04:14:43.982Z,99917.28
2023-04-02T04:20:07.754Z,99922.88
2023-04-02T04:25:40.139Z,99939.88
2023-04-02T04:31:18.418Z,99942.53
2023-04-02T04:36:27.825Z,99963.41
2023-04-02T04:41:37.728Z,99967.91
2023-04-02T04:46:46.008Z,99984.75
2023-04-02T04:51:52.155Z,99995.16
2023-04-02T04:57:02.554Z,100010.53
2023-04-02T05:02:17.479Z,100020.47
2023-04-02T05:07:31.839Z,100035.75
2023-04-02T05:13:02.853Z,100041.94
2023-04-02T05:18:31.691Z,100055.53
2023-04-02T05:23:47.156Z,100070.56
2023-04-02T05:29:17.192Z,100079.91
2023-04-02T05:34:26.414Z,100095.13
2023-04-02T05:39:28.530Z,100104.31
2023-04-02T05:44:40.870Z,100115.09
2023-04-02T05:49:55.485Z,100129.63
2023-04-02T05:55:31.505Z,100136.25
2023-04-02T06:00:42.584Z,100149.50
2023-04-02T06:05:49.387Z,100151.19
2023-04-02T06:10:55.532Z,100163.28
2023-04-02T06:16:00.093Z,100180.56
2023-04-02T06:21:06.312Z,100190.06
2023-04-02T06:26:35.418Z,100205.31
2023-04-02T06:31:58.804Z,100210.84
2023-04-02T06:37:32.471Z,100222.06
2023-04-02T06:42:44.540Z,100233.56
2023-04-02T06:47:52.520Z,100242.22
2023-04-02T06:53:16.041Z,100256.81
2023-04-02T06:58:19.232Z,100257.47
2023-04-02T07:03:27.311Z,100272.28
2023-04-02T07:08:31.518Z,100290.56
2023-04-02T07:13:33.214Z,100296.50
2023-04-02T07:18:35.133Z,100303.13
2023-04-02T07:23:40.495Z,100309.41
2023-04-02T07:28:42.610Z,100311.44
2023-04-02T07:33:45.373Z,100330.09
2023-04-02T07:38:47.722Z,100342.91
2023-04-02T07:43:49.600Z,100354.22
2023-04-02T07:48:51.235Z,100361.72
2023-04-02T07:53:56.214Z,100369.72
2023-04-02T07:58:58.038Z,100366.78
2023-04-02T08:03:59.723Z,100378.09
2023-04-02T08:09:05.088Z,100387.97
2023-04-02T08:14:06.891Z,100395.97
2023-04-02T08:19:08.517Z,100409.41
2023-04-02T08:24:10.341Z,100414.75
2023-04-02T08:29:12.188Z,100421.16
2023-04-02T08:34:13.896Z,100426.38
2023-04-02T08:39:15.596Z,100437.72
2023-04-02T08:44:24.802Z,100443.16
2023-04-02T08:49:39.963Z,100461.63
2023-04-02T08:54:43.608Z,100466.22
2023-04-02T08:59:45.813Z,100469.44
2023-04-02T09:04:47.949Z,100477.53
2023-04-02T09:09:50.505Z,100477.22
2023-04-02T09:15:00.939Z,100492.38
2023-04-02T09:20:17.321Z,100501.44
2023-04-02T09:25:22.561Z,100512.66
2023-04-02T09:30:33.621Z,100525.25
2023-04-02T09:35:56.539Z,100536.44
2023-04-02T09:41:01.476Z,100540.25
2023-04-02T09:46:06.335Z,100555.53
2023-04-02T09:51:21.719Z,100569.72
2023-04-02T09:56:25.641Z,100580.28
2023-04-02T10:01:39.011Z,100585.16
2023-04-02T10:06:49.861Z,100598.66
2023-04-02T10:11:51.925Z,100601.88
2023-04-02T10:17:05.567Z,100604.00
2023-04-02T10:22:17.395Z,100619.69
2023-04-02T10:27:34.269Z,100623.22
2023-04-02T10:32:59.959Z,100627.97
2023-04-02T10:38:15.866Z,100631.53
2023-04-02T10:43:32.899Z,100646.09
2023-04-02T10:48:53.163Z,100651.91
2023-04-02T10:54:09.865Z,100652.03
2023-04-02T10:59:21.379Z,100657.38
2023-04-02T11:04:28.566Z,100667.25
2023-04-02T11:09:33.944Z,100667.91
2023-04-02T11:14:36.578Z,100680.09
2023-04-02T11:19:38.626Z,100686.22
2023-04-02T11:24:45.152Z,100691.16
2023-04-02T11:29:49.538Z,100706.03
2023-04-02T11:35:03.499Z,100698.56
2023-04-02T11:40:11.055Z,100709.50
2023-04-02T11:45:26.298Z,100714.44
2023-04-02T11:50:31.072Z,100716.19
2023-04-02T11:55:34.293Z,100723.34
2023-04-02T12:01:08.488Z,100730.69
2023-04-02T12:06:46.869Z,100735.44
2023-04-02T12:11:49.920Z,100741.63
2023-04-02T12:16:53.397Z,100739.16
2023-04-02T12:21:55.681Z,100743.97
2023-04-02T12:27:15.166Z,100748.31
2023-04-02T12:32:30.054Z,100764.34
2023-04-02T12:37:32.128Z,100771.09
2023-04-02T12:42:37.736Z,100771.63
2023-04-02T12:47:44.765Z,100762.75
2023-04-02T12:52:48.727Z,100762.75
2023-04-02T12:57:58.556Z,100770.25
2023-04-02T13:03:01.804Z,100772.69
2023-04-02T13:08:04.307Z,100780.84
2023-04-02T13:13:07.645Z,100791.53
2023-04-02T13:18:21.302Z,100799.03
2023-04-02T13:23:30.330Z,100805.88
2023-04-02T13:28:32.016Z,100810.28
2023-04-02T13:33:33.721Z,100817.13
2023-04-02T13:38:35.362Z,100821.72
2023-04-02T13:43:37.224Z,100828.69
2023-04-02T13:48:39.665Z,100844.22
2023-04-02T13:53:41.462Z,100848.38
2023-04-02T13:58:43.135Z,100855.28
2023-04-02T14:03:45.452Z,100852.56
2023-04-02T14:09:11.603Z,100858.72
2023-04-02T14:14:37.915Z,100871.03
2023-04-02T14:20:00.864Z,100880.47
2023-04-02T14:25:08.523Z,100880.00
2023-04-02T14:30:39.938Z,100890.09
2023-04-02T14:35:46.613Z,100896.63
2023-04-02T14:40:51.671Z,100898.88
2023-04-02T14:46:01.985Z,100893.34
2023-04-02T14:51:22.627Z,100906.16
2023-04-02T14:56:26.786Z,100908.81
2023-04-02T15:01:35.374Z,100913.41
2023-04-02T15:06:43.105Z,100914.00
2023-04-02T15:11:48.330Z,100907.09
2023-04-02T15:16:50.008Z,100908.72
2023-04-02T15:22:08.072Z,100920.38
2023-04-02T15:27:48.219Z,100927.75
2023-04-02T15:32:49.953Z,100933.47
2023-04-02T15:38:03.723Z,100937.56
2023-04-02T15:43:20.749Z,100937.75
2023-04-02T15:49:08.051Z,100947.50
2023-04-02T15:54:32.326Z,100952.19
2023-04-02T15:59:52.374Z,100953.72
2023-04-02T16:05:03.902Z,100952.00
2023-04-02T16:10:39.996Z,100973.28
2023-04-02T16:15:47.107Z,100972.03
2023-04-02T16:20:51.059Z,100977.72
2023-04-02T16:26:30.870Z,100986.50
2023-04-02T16:31:40.942Z,100986.81
2023-04-02T16:36:54.490Z,100994.75
2023-04-02T16:42:04.672Z,101000.09
2023-04-02T16:47:31.048Z,101007.06
2023-04-02T16:52:54.288Z,101019.97
2023-04-02T16:58:21.510Z,101023.31
2023-04-02T17:03:46.928Z,101023.72
2023-04-02T17:09:03.941Z,101032.88
2023-04-02T17:14:12.404Z,101042.06
2023-04-02T17:19:16.052Z,101039.50
2023-04-02T17:24:31.358Z,101048.38
2023-04-02T17:29:36.801Z,101050.28
2023-04-02T17:34:38.477Z,101050.47
2023-04-02T17:39:58.283Z,101061.25
2023-04-02T17:45:05.020Z,101065.84
2023-04-02T17:50:24.934Z,101062.31
2023-04-02T17:55:48.155Z,101060.88
2023-04-02T18:01:05.387Z,101071.31
2023-04-02T18:06:21.320Z,101084.19
2023-04-02T18:11:22.859Z,101083.16
2023-04-02T18:16:50.243Z,101083.25
2023-04-02T18:22:31.294Z,101095.94
2023-04-02T18:28:15.142Z,101104.06
2023-04-02T18:33:37.647Z,101108.53
2023-04-02T18:39:11.693Z,101118.28
2023-04-02T18:44:38.968Z,101123.72
2023-04-02T18:49:57.796Z,101130.88
2023-04-02T18:55:05.591Z,101130.13
2023-04-02T19:00:21.759Z,101148.72
2023-04-02T19:05:41.374Z,101146.06
2023-04-02T19:10:52.742Z,101158.56
2023-04-02T19:15:54.384Z,101156.75
2023-04-02T19:21:07.125Z,101164.75
2023-04-02T19:26:11.552Z,101166.66
2023-04-02T19:31:31.948Z,101168.50
2023-04-02T19:36:47.425Z,101186.25
2023-04-02T19:41:53.979Z,101183.56
2023-04-02T19:46:58.701Z,101189.88
2023-04-02T19:52:00.706Z,101191.69
2023-04-02T19:57:04.069Z,101193.41
2023-04-02T20:02:15.781Z,101192.53
2023-04-02T20:07:20.878Z,101194.34
2023-04-02T20:12:22.538Z,101194.34
2023-04-02T20:17:24.261Z,101202.19
2023-04-02T20:22:26.167Z,101200.28
2023-04-02T20:27:29.531Z,101204.59
2023-04-02T20:32:31.322Z,101213.38
2023-04-02T20:37:46.357Z,101221.38
2023-04-02T20:42:49.385Z,101227.78
2023-04-02T20:47:51.142Z,101230.47
2023-04-02T20:52:58.156Z,101241.16
2023-04-02T20:57:59.671Z,101239.34
2023-04-02T21:03:01.378Z,101244.00
2023-04-02T21:08:05.431Z,101250.13
2023-04-02T21:13:11.657Z,101239.44
2023-04-02T21:18:13.309Z,101250.03
2023-04-02T21:23:20.986Z,101254.59
2023-04-02T21:28:27.390Z,101251.06
2023-04-02T21:33:29.722Z,101251.34
2023-04-02T21:38:31.478Z,101258.59
2023-04-02T21:43:33.096Z,101263.09
2023-04-02T21:48:35.004Z,101266.97
2023-04-02T21:53:36.866Z,101268.09
2023-04-02T21:58:38.615Z,101279.97
2023-04-02T22:03:41.987Z,101280.06
2023-04-02T22:08:44.547Z,101288.34
2023-04-02T22:13:47.785Z,101283.19
2023-04-02T22:18:51.421Z,101291.47
2023-04-02T22:23:53.160Z,101295.34
2023-04-02T22:28:56.826Z,101294.75
2023-04-02T22:33:59.643Z,101297.78
2023-04-02T22:39:03.556Z,101307.78
2023-04-02T22:44:05.341Z,101312.69
2023-04-02T22:49:07.069Z,101310.28
2023-04-02T22:54:08.691Z,101315.06
2023-04-02T22:59:10.444Z,101324.28
2023-04-02T23:04:12.112Z,101336.84
2023-04-02T23:09:13.731Z,101335.28
2023-04-02T23:14:15.397Z,101339.94
2023-04-02T23:19:17.123Z,101348.19
2023-04-02T23:24:18.784Z,101351.09
2023-04-02T23:29:20.486Z,101345.16
2023-04-02T23:34:22.128Z,101355.38
2023-04-02T23:39:23.751Z,101354.91
2023-04-02T23:44:25.872Z,101355.13
2023-04-02T23:49:27.976Z,101358.38
2023-04-02T23:54:29.605Z,101361.59
2023-04-02T23:59:31.231Z,101368.97
